sensor_id;sensor_type;location;lat;lon;timestamp;pressure;altitude;pressure_sealevel;temperature;humidity
8451;BME280;4262;50.980;13.892;2023-02-16T04:31:59;50316.09;;;-142.97;23.46
8451;BME280;4262;50.980;13.892;2023-02-16T04:34:26;50312.19;;;-142.97;23.82
8451;BME280;4262;50.980;13.892;2023-02-16T04:36:53;50304.38;;;-142.97;23.56
8451;BME280;4262;50.980;13.892;2023-02-16T04:39:21;50320.00;;;-142.97;23.56
8451;BME280;4262;50.980;13.892;2023-02-16T04:41:48;50314.13;;;-142.97;24.65
8451;BME280;4262;50.980;13.892;2023-02-16T04:44:15;50345.34;;;-142.97;24.55
8451;BME280;4262;50.980;13.892;2023-02-16T04:46:41;50306.34;;;-142.97;24.46
8451;BME280;4262;50.980;13.892;2023-02-16T04:49:10;50302.44;;;-142.97;24.65
8451;BME280;4262;50.980;13.892;2023-02-16T04:51:37;50300.50;;;-142.97;25.73
8451;BME280;4262;50.980;13.892;2023-02-16T04:54:04;50245.91;;;-142.97;25.45
8451;BME280;4262;50.980;13.892;2023-02-16T04:56:31;50292.69;;;-142.97;24.48
8451;BME280;4262;50.980;13.892;2023-02-16T04:58:58;50286.84;;;-142.97;23.70
8451;BME280;4262;50.980;13.892;2023-02-16T05:01:26;50290.75;;;-142.97;23.96
8451;BME280;4262;50.980;13.892;2023-02-16T05:03:54;50308.28;;;-142.97;23.62
8451;BME280;4262;50.980;13.892;2023-02-16T05:06:24;50320.00;;;-142.97;23.61
8451;BME280;4262;50.980;13.892;2023-02-16T05:08:50;50314.13;;;-142.97;23.29
8451;BME280;4262;50.980;13.892;2023-02-16T05:11:18;50302.44;;;-142.97;23.34
8451;BME280;4262;50.980;13.892;2023-02-16T05:14:03;50304.38;;;-142.97;23.03
8451;BME280;4262;50.980;13.892;2023-02-16T05:16:47;50300.50;;;-142.97;23.79
8451;BME280;4262;50.980;13.892;2023-02-16T05:19:14;50318.03;;;-142.97;23.79
8451;BME280;4262;50.980;13.892;2023-02-16T05:21:44;50269.28;;;-142.97;23.90
8451;BME280;4262;50.980;13.892;2023-02-16T05:24:11;50294.63;;;-142.97;23.61
8451;BME280;4262;50.980;13.892;2023-02-16T05:26:38;50304.38;;;-142.97;23.14
8451;BME280;4262;50.980;13.892;2023-02-16T05:29:05;50288.78;;;-142.97;24.33
8451;BME280;4262;50.980;13.892;2023-02-16T05:31:33;50312.19;;;-142.97;24.80
8451;BME280;4262;50.980;13.892;2023-02-16T05:33:59;50279.03;;;-142.97;24.53
8451;BME280;4262;50.980;13.892;2023-02-16T05:36:28;50279.03;;;-142.97;24.49
8451;BME280;4262;50.980;13.892;2023-02-16T05:38:56;50302.44;;;-142.97;23.55
8451;BME280;4262;50.980;13.892;2023-02-16T05:41:23;50298.53;;;-142.97;24.07
8451;BME280;4262;50.980;13.892;2023-02-16T05:43:50;50310.25;;;-142.97;24.17
8451;BME280;4262;50.980;13.892;2023-02-16T05:46:17;50271.25;;;-142.97;23.74
8451;BME280;4262;50.980;13.892;2023-02-16T05:48:44;50333.63;;;-142.97;24.03
8451;BME280;4262;50.980;13.892;2023-02-16T05:51:11;50296.59;;;-142.97;23.81
8451;BME280;4262;50.980;13.892;2023-02-16T05:53:38;50296.59;;;-142.97;23.96
8451;BME280;4262;50.980;13.892;2023-02-16T05:56:07;50298.53;;;-142.97;23.44
8451;BME280;4262;50.980;13.892;2023-02-16T05:58:33;50292.69;;;-142.97;24.19
8451;BME280;4262;50.980;13.892;2023-02-16T06:01:00;50323.88;;;-142.97;24.89
8451;BME280;4262;50.980;13.892;2023-02-16T06:03:26;50306.34;;;-142.97;24.02
8451;BME280;4262;50.980;13.892;2023-02-16T06:05:54;50284.91;;;-142.97;24.36
8451;BME280;4262;50.980;13.892;2023-02-16T06:08:23;50290.75;;;-142.97;23.44
8451;BME280;4262;50.980;13.892;2023-02-16T06:10:51;50275.16;;;-142.97;24.14
8451;BME280;4262;50.980;13.892;2023-02-16T06:13:21;50265.41;;;-142.97;24.25
8451;BME280;4262;50.980;13.892;2023-02-16T06:15:50;50288.78;;;-142.97;24.19
8451;BME280;4262;50.980;13.892;2023-02-16T06:18:17;50300.50;;;-142.97;24.21
8451;BME280;4262;50.980;13.892;2023-02-16T06:20:45;50288.78;;;-142.97;24.55
8451;BME280;4262;50.980;13.892;2023-02-16T06:23:12;50306.34;;;-142.97;24.15
8451;BME280;4262;50.980;13.892;2023-02-16T06:25:40;50288.78;;;-142.97;23.88
8451;BME280;4262;50.980;13.892;2023-02-16T06:28:08;50302.44;;;-142.97;23.88
8451;BME280;4262;50.980;13.892;2023-02-16T06:30:36;50288.78;;;-142.97;25.23
8451;BME280;4262;50.980;13.892;2023-02-16T06:33:03;50314.13;;;-142.97;24.74
8451;BME280;4262;50.980;13.892;2023-02-16T06:35:30;50310.25;;;-142.97;24.43
8451;BME280;4262;50.980;13.892;2023-02-16T06:37:58;50275.16;;;-142.97;24.50
8451;BME280;4262;50.980;13.892;2023-02-16T06:40:25;50275.16;;;-142.97;24.31
8451;BME280;4262;50.980;13.892;2023-02-16T06:42:53;50257.59;;;-142.97;24.59
8451;BME280;4262;50.980;13.892;2023-02-16T06:45:20;50298.53;;;-142.97;24.34
8451;BME280;4262;50.980;13.892;2023-02-16T06:47:48;50306.34;;;-142.97;24.04
8451;BME280;4262;50.980;13.892;2023-02-16T06:50:15;50275.16;;;-142.97;24.43
8451;BME280;4262;50.980;13.892;2023-02-16T06:52:41;50298.53;;;-142.97;24.58
8451;BME280;4262;50.980;13.892;2023-02-16T06:55:08;50292.69;;;-142.97;24.34
8451;BME280;4262;50.980;13.892;2023-02-16T06:57:34;50286.84;;;-142.97;24.39
8451;BME280;4262;50.980;13.892;2023-02-16T07:00:02;50325.84;;;-142.97;24.47
8451;BME280;4262;50.980;13.892;2023-02-16T07:02:31;50275.16;;;-142.97;24.17
8451;BME280;4262;50.980;13.892;2023-02-16T07:04:58;50314.13;;;-142.97;24.19
8451;BME280;4262;50.980;13.892;2023-02-16T07:07:25;50314.13;;;-142.97;24.14
8451;BME280;4262;50.980;13.892;2023-02-16T07:09:52;50269.28;;;-142.97;23.92
8451;BME280;4262;50.980;13.892;2023-02-16T07:12:19;50273.19;;;-142.97;24.04
8451;BME280;4262;50.980;13.892;2023-02-16T07:14:45;50288.78;;;-142.97;23.98
8451;BME280;4262;50.980;13.892;2023-02-16T07:17:12;50306.34;;;-142.97;23.88
8451;BME280;4262;50.980;13.892;2023-02-16T07:19:39;50318.03;;;-142.97;23.59
8451;BME280;4262;50.980;13.892;2023-02-16T07:22:07;50296.59;;;-142.97;23.84
8451;BME280;4262;50.980;13.892;2023-02-16T07:24:33;50275.16;;;-142.97;23.60
8451;BME280;4262;50.980;13.892;2023-02-16T07:27:00;50302.44;;;-142.97;23.54
8451;BME280;4262;50.980;13.892;2023-02-16T07:29:26;50296.59;;;-142.97;23.78
8451;BME280;4262;50.980;13.892;2023-02-16T07:31:55;50310.25;;;-142.97;24.12
8451;BME280;4262;50.980;13.892;2023-02-16T07:34:21;50286.84;;;-142.97;24.34
8451;BME280;4262;50.980;13.892;2023-02-16T07:36:48;50273.19;;;-142.97;24.94
8451;BME280;4262;50.980;13.892;2023-02-16T07:39:17;50288.78;;;-142.97;24.53
8451;BME280;4262;50.980;13.892;2023-02-16T07:41:44;50333.63;;;-142.97;24.53
8451;BME280;4262;50.980;13.892;2023-02-16T07:44:16;50275.16;;;-142.97;24.38
8451;BME280;4262;50.980;13.892;2023-02-16T07:46:42;50314.13;;;-142.97;24.19
8451;BME280;4262;50.980;13.892;2023-02-16T07:49:09;50306.34;;;-142.97;24.55
8451;BME280;4262;50.980;13.892;2023-02-16T07:51:38;50263.44;;;-142.97;23.92
8451;BME280;4262;50.980;13.892;2023-02-16T07:54:05;50294.63;;;-142.97;24.11
8451;BME280;4262;50.980;13.892;2023-02-16T07:56:33;50279.03;;;-142.97;24.36
8451;BME280;4262;50.980;13.892;2023-02-16T07:59:01;50286.84;;;-142.97;24.45
8451;BME280;4262;50.980;13.892;2023-02-16T08:01:29;50282.94;;;-142.97;23.87
8451;BME280;4262;50.980;13.892;2023-02-16T08:03:56;50292.69;;;-142.97;23.88
8451;BME280;4262;50.980;13.892;2023-02-16T08:06:23;50277.09;;;-142.97;24.17
8451;BME280;4262;50.980;13.892;2023-02-16T08:08:49;50296.59;;;-142.97;23.73
8451;BME280;4262;50.980;13.892;2023-02-16T08:11:17;50296.59;;;-142.97;23.78
8451;BME280;4262;50.980;13.892;2023-02-16T08:13:46;50294.63;;;-142.97;24.12
8451;BME280;4262;50.980;13.892;2023-02-16T08:16:15;50282.94;;;-142.97;23.71
8451;BME280;4262;50.980;13.892;2023-02-16T08:18:43;50321.94;;;-142.97;24.15
8451;BME280;4262;50.980;13.892;2023-02-16T08:21:12;50290.75;;;-142.97;23.34
8451;BME280;4262;50.980;13.892;2023-02-16T08:23:40;50308.28;;;-142.97;24.33
8451;BME280;4262;50.980;13.892;2023-02-16T08:26:09;50279.03;;;-142.97;24.55
8451;BME280;4262;50.980;13.892;2023-02-16T08:28:36;50263.44;;;-142.97;24.92
8451;BME280;4262;50.980;13.892;2023-02-16T08:31:05;50282.94;;;-142.97;24.07
8451;BME280;4262;50.980;13.892;2023-02-16T08:33:32;50271.25;;;-142.97;24.26
8451;BME280;4262;50.980;13.892;2023-02-16T08:35:59;50277.09;;;-142.97;23.83
8451;BME280;4262;50.980;13.892;2023-02-16T08:38:26;50300.50;;;-142.97;23.42
8451;BME280;4262;50.980;13.892;2023-02-16T08:40:53;50263.44;;;-142.97;23.36
8451;BME280;4262;50.980;13.892;2023-02-16T08:43:20;50271.25;;;-142.97;23.38
8451;BME280;4262;50.980;13.892;2023-02-16T08:45:47;50247.84;;;-142.97;23.49
8451;BME280;4262;50.980;13.892;2023-02-16T08:48:15;50236.16;;;-142.97;23.48
8451;BME280;4262;50.980;13.892;2023-02-16T08:50:42;50224.47;;;-142.97;23.11
8451;BME280;4262;50.980;13.892;2023-02-16T08:53:13;50203.00;;;-142.97;21.94
8451;BME280;4262;50.980;13.892;2023-02-16T08:55:39;50181.56;;;-142.97;21.92
8451;BME280;4262;50.980;13.892;2023-02-16T08:58:06;50132.81;;;-142.97;21.32
8451;BME280;4262;50.980;13.892;2023-02-16T09:00:33;50128.94;;;-142.97;21.12
8451;BME280;4262;50.980;13.892;2023-02-16T09:03:00;50126.97;;;-142.97;20.93
8451;BME280;4262;50.980;13.892;2023-02-16T09:05:28;50171.81;;;-142.97;21.89
8451;BME280;4262;50.980;13.892;2023-02-16T09:07:55;50111.38;;;-142.97;21.42
8451;BME280;4262;50.980;13.892;2023-02-16T09:10:23;50144.53;;;-142.97;20.99
8451;BME280;4262;50.980;13.892;2023-02-16T09:12:49;50119.19;;;-142.97;20.78
8451;BME280;4262;50.980;13.892;2023-02-16T09:15:16;50134.78;;;-142.97;20.52
8451;BME280;4262;50.980;13.892;2023-02-16T09:17:42;50136.72;;;-142.97;20.57
8451;BME280;4262;50.980;13.892;2023-02-16T09:20:11;50128.94;;;-142.97;20.23
8451;BME280;4262;50.980;13.892;2023-02-16T09:22:42;50132.81;;;-142.97;20.93
8451;BME280;4262;50.980;13.892;2023-02-16T09:25:09;50101.63;;;-142.97;21.33
8451;BME280;4262;50.980;13.892;2023-02-16T09:27:36;50121.13;;;-142.97;21.20
8451;BME280;4262;50.980;13.892;2023-02-16T09:30:03;50113.34;;;-142.97;21.40
8451;BME280;4262;50.980;13.892;2023-02-16T09:32:32;50152.31;;;-142.97;21.78
8451;BME280;4262;50.980;13.892;2023-02-16T09:34:59;50103.59;;;-142.97;21.74
8451;BME280;4262;50.980;13.892;2023-02-16T09:37:26;50107.47;;;-142.97;21.56
8451;BME280;4262;50.980;13.892;2023-02-16T09:39:54;50086.03;;;-142.97;21.36
8451;BME280;4262;50.980;13.892;2023-02-16T09:42:28;50084.09;;;-142.97;21.16
8451;BME280;4262;50.980;13.892;2023-02-16T09:45:05;50093.84;;;-142.97;21.26
8451;BME280;4262;50.980;13.892;2023-02-16T09:47:37;50113.34;;;-142.97;20.38
8451;BME280;4262;50.980;13.892;2023-02-16T09:50:12;50136.72;;;-142.97;21.12
8451;BME280;4262;50.980;13.892;2023-02-16T09:52:43;50162.06;;;-142.97;22.06
8451;BME280;4262;50.980;13.892;2023-02-16T09:55:17;50179.63;;;-142.97;22.16
8451;BME280;4262;50.980;13.892;2023-02-16T09:57:53;50169.88;;;-142.97;22.42
8451;BME280;4262;50.980;13.892;2023-02-16T10:00:33;50126.97;;;-142.97;21.46
8451;BME280;4262;50.980;13.892;2023-02-16T10:03:15;50089.94;;;-142.97;22.40
8451;BME280;4262;50.980;13.892;2023-02-16T10:05:49;50107.47;;;-142.97;21.65
8451;BME280;4262;50.980;13.892;2023-02-16T10:08:24;50115.28;;;-142.97;21.56
8451;BME280;4262;50.980;13.892;2023-02-16T10:11:00;50162.06;;;-142.97;21.51
8451;BME280;4262;50.980;13.892;2023-02-16T10:13:36;50140.63;;;-142.97;22.07
8451;BME280;4262;50.980;13.892;2023-02-16T10:16:05;50080.19;;;-142.97;22.64
8451;BME280;4262;50.980;13.892;2023-02-16T10:18:39;50099.69;;;-142.97;21.29
8451;BME280;4262;50.980;13.892;2023-02-16T10:21:14;50070.44;;;-142.97;20.97
8451;BME280;4262;50.980;13.892;2023-02-16T10:23:45;50089.94;;;-142.97;20.40
8451;BME280;4262;50.980;13.892;2023-02-16T10:26:18;50049.00;;;-142.97;20.16
8451;BME280;4262;50.980;13.892;2023-02-16T10:28:50;50052.91;;;-142.97;20.50
8451;BME280;4262;50.980;13.892;2023-02-16T10:31:24;50045.09;;;-142.97;20.19
8451;BME280;4262;50.980;13.892;2023-02-16T10:34:09;50084.09;;;-142.97;20.27
8451;BME280;4262;50.980;13.892;2023-02-16T10:36:56;50072.38;;;-142.97;20.26
8451;BME280;4262;50.980;13.892;2023-02-16T10:39:34;50060.69;;;-142.97;19.97
8451;BME280;4262;50.980;13.892;2023-02-16T10:42:16;50091.88;;;-142.97;19.82
8451;BME280;4262;50.980;13.892;2023-02-16T10:44:46;50091.88;;;-142.97;19.84
8451;BME280;4262;50.980;13.892;2023-02-16T10:47:27;50095.78;;;-142.97;19.76
8451;BME280;4262;50.980;13.892;2023-02-16T10:49:55;50062.66;;;-142.97;20.06
8451;BME280;4262;50.980;13.892;2023-02-16T10:52:23;50088.00;;;-142.97;19.87
8451;BME280;4262;50.980;13.892;2023-02-16T10:54:50;50037.31;;;-142.97;20.04
8451;BME280;4262;50.980;13.892;2023-02-16T10:57:24;50060.69;;;-142.97;19.41
8451;BME280;4262;50.980;13.892;2023-02-16T10:59:52;50093.84;;;-142.97;19.73
8451;BME280;4262;50.980;13.892;2023-02-16T11:02:23;50088.00;;;-142.97;19.68
8451;BME280;4262;50.980;13.892;2023-02-16T11:04:52;50047.03;;;-142.97;19.55
8451;BME280;4262;50.980;13.892;2023-02-16T11:07:21;50041.19;;;-142.97;19.99
8451;BME280;4262;50.980;13.892;2023-02-16T11:09:51;50068.50;;;-142.97;19.81
8451;BME280;4262;50.980;13.892;2023-02-16T11:12:26;50035.34;;;-142.97;19.34
8451;BME280;4262;50.980;13.892;2023-02-16T11:14:56;50037.31;;;-142.97;19.41
8451;BME280;4262;50.980;13.892;2023-02-16T11:17:24;50047.03;;;-142.97;19.35
8451;BME280;4262;50.980;13.892;2023-02-16T11:19:55;50029.50;;;-142.97;19.41
8451;BME280;4262;50.980;13.892;2023-02-16T11:22:27;50041.19;;;-142.97;19.18
8451;BME280;4262;50.980;13.892;2023-02-16T11:24:54;50047.03;;;-142.97;18.92
8451;BME280;4262;50.980;13.892;2023-02-16T11:27:25;50025.59;;;-142.97;19.75
8451;BME280;4262;50.980;13.892;2023-02-16T11:30:13;50025.59;;;-142.97;19.05
8451;BME280;4262;50.980;13.892;2023-02-16T11:32:46;50047.03;;;-142.97;19.23
8451;BME280;4262;50.980;13.892;2023-02-16T11:35:13;50035.34;;;-142.97;19.12
8451;BME280;4262;50.980;13.892;2023-02-16T11:37:42;50021.69;;;-142.97;19.07
8451;BME280;4262;50.980;13.892;2023-02-16T11:40:18;50039.25;;;-142.97;19.02
8451;BME280;4262;50.980;13.892;2023-02-16T11:42:48;50052.91;;;-142.97;19.55
8451;BME280;4262;50.980;13.892;2023-02-16T11:45:26;50039.25;;;-142.97;19.43
8451;BME280;4262;50.980;13.892;2023-02-16T11:47:55;50058.75;;;-142.97;19.19
8451;BME280;4262;50.980;13.892;2023-02-16T11:50:24;50029.50;;;-142.97;19.26
8451;BME280;4262;50.980;13.892;2023-02-16T11:52:55;50056.78;;;-142.97;19.14
8451;BME280;4262;50.980;13.892;2023-02-16T11:55:25;50021.69;;;-142.97;19.45
8451;BME280;4262;50.980;13.892;2023-02-16T11:57:54;50047.03;;;-142.97;19.71
8451;BME280;4262;50.980;13.892;2023-02-16T12:00:23;50045.09;;;-142.97;20.09
8451;BME280;4262;50.980;13.892;2023-02-16T12:03:15;50045.09;;;-142.97;19.69
8451;BME280;4262;50.980;13.892;2023-02-16T12:05:53;50054.84;;;-142.97;19.35
8451;BME280;4262;50.980;13.892;2023-02-16T12:08:32;50045.09;;;-142.97;18.99
8451;BME280;4262;50.980;13.892;2023-02-16T12:11:19;50025.59;;;-142.97;19.17
8451;BME280;4262;50.980;13.892;2023-02-16T12:14:00;50049.00;;;-142.97;19.13
8451;BME280;4262;50.980;13.892;2023-02-16T12:16:34;50052.91;;;-142.97;19.64
8451;BME280;4262;50.980;13.892;2023-02-16T12:19:13;50072.38;;;-142.97;19.37
8451;BME280;4262;50.980;13.892;2023-02-16T12:21:48;50033.41;;;-142.97;19.19
8451;BME280;4262;50.980;13.892;2023-02-16T12:24:26;50066.53;;;-142.97;19.52
8451;BME280;4262;50.980;13.892;2023-02-16T12:26:58;50060.69;;;-142.97;19.12
8451;BME280;4262;50.980;13.892;2023-02-16T12:29:38;50074.34;;;-142.97;19.35
8451;BME280;4262;50.980;13.892;2023-02-16T12:32:33;50039.25;;;-142.97;18.80
8451;BME280;4262;50.980;13.892;2023-02-16T12:38:04;50054.84;;;-142.97;18.73
8451;BME280;4262;50.980;13.892;2023-02-16T12:40:44;50054.84;;;-142.97;18.47
8451;BME280;4262;50.980;13.892;2023-02-16T12:43:27;50054.84;;;-142.97;18.50
8451;BME280;4262;50.980;13.892;2023-02-16T12:46:08;50054.84;;;-142.97;19.50
8451;BME280;4262;50.980;13.892;2023-02-16T12:48:41;50045.09;;;-142.97;19.10
8451;BME280;4262;50.980;13.892;2023-02-16T12:51:14;50066.53;;;-142.97;19.19
8451;BME280;4262;50.980;13.892;2023-02-16T12:53:48;50066.53;;;-142.97;19.12
8451;BME280;4262;50.980;13.892;2023-02-16T12:56:20;50070.44;;;-142.97;19.04
8451;BME280;4262;50.980;13.892;2023-02-16T12:58:54;50095.78;;;-142.97;19.62
8451;BME280;4262;50.980;13.892;2023-02-16T13:01:29;50060.69;;;-142.97;19.62
8451;BME280;4262;50.980;13.892;2023-02-16T13:04:06;50056.78;;;-142.97;19.65
8451;BME280;4262;50.980;13.892;2023-02-16T13:06:44;50080.19;;;-142.97;19.57
8451;BME280;4262;50.980;13.892;2023-02-16T13:09:20;50088.00;;;-142.97;19.65
8451;BME280;4262;50.980;13.892;2023-02-16T13:11:53;50126.97;;;-142.97;19.48
8451;BME280;4262;50.980;13.892;2023-02-16T13:14:24;50169.88;;;-142.97;20.23
8451;BME280;4262;50.980;13.892;2023-02-16T13:16:56;50144.53;;;-142.97;20.33
8451;BME280;4262;50.980;13.892;2023-02-16T13:19:24;50107.47;;;-142.97;20.22
8451;BME280;4262;50.980;13.892;2023-02-16T13:22:22;50109.44;;;-142.97;19.80
8451;BME280;4262;50.980;13.892;2023-02-16T13:25:05;50091.88;;;-142.97;20.18
8451;BME280;4262;50.980;13.892;2023-02-16T13:27:45;50105.53;;;-142.97;20.11
8451;BME280;4262;50.980;13.892;2023-02-16T13:33:44;50154.28;;;-142.97;19.74
8451;BME280;4262;50.980;13.892;2023-02-16T13:36:33;50126.97;;;-142.97;20.07
8451;BME280;4262;50.980;13.892;2023-02-16T13:39:19;50181.56;;;-142.97;20.60
8451;BME280;4262;50.980;13.892;2023-02-16T13:42:09;50142.56;;;-142.97;20.81
8451;BME280;4262;50.980;13.892;2023-02-16T13:44:47;50109.44;;;-142.97;20.78
8451;BME280;4262;50.980;13.892;2023-02-16T13:47:19;50167.91;;;-142.97;20.98
8451;BME280;4262;50.980;13.892;2023-02-16T13:49:56;50169.88;;;-142.97;21.05
8451;BME280;4262;50.980;13.892;2023-02-16T13:52:29;50126.97;;;-142.97;20.98
8451;BME280;4262;50.980;13.892;2023-02-16T13:54:58;50119.19;;;-142.97;21.49
8451;BME280;4262;50.980;13.892;2023-02-16T13:58:00;50150.38;;;-142.97;20.64
8451;BME280;4262;50.980;13.892;2023-02-16T14:00:32;50144.53;;;-142.97;20.91
8451;BME280;4262;50.980;13.892;2023-02-16T14:03:01;50117.22;;;-142.97;20.88
8451;BME280;4262;50.980;13.892;2023-02-16T14:05:36;50169.88;;;-142.97;20.81
8451;BME280;4262;50.980;13.892;2023-02-16T14:08:18;50162.06;;;-142.97;20.85
8451;BME280;4262;50.980;13.892;2023-02-16T14:11:01;50164.03;;;-142.97;21.29
8451;BME280;4262;50.980;13.892;2023-02-16T14:13:30;50140.63;;;-142.97;21.32
8451;BME280;4262;50.980;13.892;2023-02-16T14:16:03;50134.78;;;-142.97;20.86
8451;BME280;4262;50.980;13.892;2023-02-16T14:18:34;50146.47;;;-142.97;20.93
8451;BME280;4262;50.980;13.892;2023-02-16T14:21:16;50123.06;;;-142.97;21.32
8451;BME280;4262;50.980;13.892;2023-02-16T14:23:53;50156.22;;;-142.97;21.12
8451;BME280;4262;50.980;13.892;2023-02-16T14:26:20;50148.41;;;-142.97;20.86
8451;BME280;4262;50.980;13.892;2023-02-16T14:28:56;50148.41;;;-142.97;20.57
8451;BME280;4262;50.980;13.892;2023-02-16T14:31:26;50169.88;;;-142.97;20.62
8451;BME280;4262;50.980;13.892;2023-02-16T14:34:02;50160.13;;;-142.97;20.58
8451;BME280;4262;50.980;13.892;2023-02-16T14:36:32;50165.97;;;-142.97;20.48
8451;BME280;4262;50.980;13.892;2023-02-16T14:38:59;50169.88;;;-142.97;20.98
8451;BME280;4262;50.980;13.892;2023-02-16T14:41:28;50177.66;;;-142.97;20.43
8451;BME280;4262;50.980;13.892;2023-02-16T14:44:18;50191.31;;;-142.97;21.06
8451;BME280;4262;50.980;13.892;2023-02-16T14:46:57;50197.16;;;-142.97;20.68
8451;BME280;4262;50.980;13.892;2023-02-16T14:49:57;50234.19;;;-142.97;21.05
8451;BME280;4262;50.980;13.892;2023-02-16T14:52:41;50245.91;;;-142.97;21.27
8451;BME280;4262;50.980;13.892;2023-02-16T14:55:44;50232.25;;;-142.97;21.30
8451;BME280;4262;50.980;13.892;2023-02-16T14:58:23;50238.09;;;-142.97;21.75
8451;BME280;4262;50.980;13.892;2023-02-16T15:00:54;50240.06;;;-142.97;21.49
8451;BME280;4262;50.980;13.892;2023-02-16T15:03:24;50255.66;;;-142.97;21.58
8451;BME280;4262;50.980;13.892;2023-02-16T15:05:54;50210.81;;;-142.97;21.36
8451;BME280;4262;50.980;13.892;2023-02-16T15:08:26;50210.81;;;-142.97;21.07
8451;BME280;4262;50.980;13.892;2023-02-16T15:11:00;50224.47;;;-142.97;21.15
8451;BME280;4262;50.980;13.892;2023-02-16T15:13:32;50251.75;;;-142.97;21.36
8451;BME280;4262;50.980;13.892;2023-02-16T15:15:59;50228.34;;;-142.97;20.91
8451;BME280;4262;50.980;13.892;2023-02-16T15:18:32;50249.81;;;-142.97;21.33
8451;BME280;4262;50.980;13.892;2023-02-16T15:20:59;50269.28;;;-142.97;21.11
8451;BME280;4262;50.980;13.892;2023-02-16T15:23:30;50257.59;;;-142.97;20.86
8451;BME280;4262;50.980;13.892;2023-02-16T15:26:00;50232.25;;;-142.97;21.89
8451;BME280;4262;50.980;13.892;2023-02-16T15:28:29;50243.94;;;-142.97;21.34
8451;BME280;4262;50.980;13.892;2023-02-16T15:30:57;50224.47;;;-142.97;21.17
8451;BME280;4262;50.980;13.892;2023-02-16T15:33:29;50251.75;;;-142.97;21.80
8451;BME280;4262;50.980;13.892;2023-02-16T15:35:59;50259.56;;;-142.97;21.47
8451;BME280;4262;50.980;13.892;2023-02-16T15:38:31;50257.59;;;-142.97;21.28
8451;BME280;4262;50.980;13.892;2023-02-16T15:41:00;50238.09;;;-142.97;22.07
8451;BME280;4262;50.980;13.892;2023-02-16T15:43:31;50230.31;;;-142.97;21.99
8451;BME280;4262;50.980;13.892;2023-02-16T15:45:59;50261.50;;;-142.97;21.68
8451;BME280;4262;50.980;13.892;2023-02-16T15:48:28;50259.56;;;-142.97;21.99
8451;BME280;4262;50.980;13.892;2023-02-16T15:51:00;50271.25;;;-142.97;22.39
8451;BME280;4262;50.980;13.892;2023-02-16T15:53:35;50251.75;;;-142.97;21.94
8451;BME280;4262;50.980;13.892;2023-02-16T15:56:15;50281.00;;;-142.97;22.44
8451;BME280;4262;50.980;13.892;2023-02-16T15:58:42;50245.91;;;-142.97;21.87
8451;BME280;4262;50.980;13.892;2023-02-16T16:01:08;50259.56;;;-142.97;22.28
8451;BME280;4262;50.980;13.892;2023-02-16T16:03:40;50261.50;;;-142.97;22.20
8451;BME280;4262;50.980;13.892;2023-02-16T16:06:11;50284.91;;;-142.97;21.85
8451;BME280;4262;50.980;13.892;2023-02-16T16:08:39;50271.25;;;-142.97;22.17
8451;BME280;4262;50.980;13.892;2023-02-16T16:11:06;50261.50;;;-142.97;22.35
8451;BME280;4262;50.980;13.892;2023-02-16T16:13:34;50273.19;;;-142.97;22.09
8451;BME280;4262;50.980;13.892;2023-02-16T16:16:00;50273.19;;;-142.97;22.29
8451;BME280;4262;50.980;13.892;2023-02-16T16:18:50;50281.00;;;-142.97;22.25
8451;BME280;4262;50.980;13.892;2023-02-16T16:21:23;50245.91;;;-142.97;21.98
8451;BME280;4262;50.980;13.892;2023-02-16T16:24:00;50275.16;;;-142.97;21.65
8451;BME280;4262;50.980;13.892;2023-02-16T16:26:30;50271.25;;;-142.97;22.11
8451;BME280;4262;50.980;13.892;2023-02-16T16:28:58;50259.56;;;-142.97;22.41
8451;BME280;4262;50.980;13.892;2023-02-16T16:31:37;50294.63;;;-142.97;21.80
8451;BME280;4262;50.980;13.892;2023-02-16T16:34:06;50249.81;;;-142.97;21.67
8451;BME280;4262;50.980;13.892;2023-02-16T16:36:34;50245.91;;;-142.97;21.80
8451;BME280;4262;50.980;13.892;2023-02-16T16:39:24;50300.50;;;-142.97;21.73
8451;BME280;4262;50.980;13.892;2023-02-16T16:42:14;50288.78;;;-142.97;22.09
8451;BME280;4262;50.980;13.892;2023-02-16T16:44:44;50275.16;;;-142.97;21.88
8451;BME280;4262;50.980;13.892;2023-02-16T16:47:23;50282.94;;;-142.97;22.06
8451;BME280;4262;50.980;13.892;2023-02-16T16:49:52;50232.25;;;-142.97;21.65
8451;BME280;4262;50.980;13.892;2023-02-16T16:52:35;50306.34;;;-142.97;21.92
8451;BME280;4262;50.980;13.892;2023-02-16T16:55:19;50292.69;;;-142.97;22.05
8451;BME280;4262;50.980;13.892;2023-02-16T16:57:47;50269.28;;;-142.97;22.22
8451;BME280;4262;50.980;13.892;2023-02-16T17:00:16;50269.28;;;-142.97;22.22
8451;BME280;4262;50.980;13.892;2023-02-16T17:02:43;50257.59;;;-142.97;22.55
8451;BME280;4262;50.980;13.892;2023-02-16T17:05:10;50281.00;;;-142.97;22.52
8451;BME280;4262;50.980;13.892;2023-02-16T17:07:37;50265.41;;;-142.97;22.20
8451;BME280;4262;50.980;13.892;2023-02-16T17:10:05;50249.81;;;-142.97;22.52
8451;BME280;4262;50.980;13.892;2023-02-16T17:12:33;50255.66;;;-142.97;22.90
8451;BME280;4262;50.980;13.892;2023-02-16T17:15:01;50298.53;;;-142.97;22.48
8451;BME280;4262;50.980;13.892;2023-02-16T17:17:28;50275.16;;;-142.97;22.86
8451;BME280;4262;50.980;13.892;2023-02-16T17:19:56;50257.59;;;-142.97;23.20
8451;BME280;4262;50.980;13.892;2023-02-16T17:22:22;50267.34;;;-142.97;22.19
8451;BME280;4262;50.980;13.892;2023-02-16T17:24:51;50282.94;;;-142.97;22.56
8451;BME280;4262;50.980;13.892;2023-02-16T17:27:18;50286.84;;;-142.97;22.44
8451;BME280;4262;50.980;13.892;2023-02-16T17:29:46;50279.03;;;-142.97;22.43
8451;BME280;4262;50.980;13.892;2023-02-16T17:32:13;50277.09;;;-142.97;22.22
8451;BME280;4262;50.980;13.892;2023-02-16T17:34:41;50284.91;;;-142.97;21.81
8451;BME280;4262;50.980;13.892;2023-02-16T17:37:09;50290.75;;;-142.97;22.19
8451;BME280;4262;50.980;13.892;2023-02-16T17:39:36;50316.09;;;-142.97;22.61
8451;BME280;4262;50.980;13.892;2023-02-16T17:42:03;50275.16;;;-142.97;22.70
8451;BME280;4262;50.980;13.892;2023-02-16T17:44:30;50251.75;;;-142.97;22.84
8451;BME280;4262;50.980;13.892;2023-02-16T17:46:58;50249.81;;;-142.97;22.59
8451;BME280;4262;50.980;13.892;2023-02-16T17:49:25;50259.56;;;-142.97;22.96